sensor_id;sensor_type;location;lat;lon;timestamp;P1;durP1;ratioP1;P2;durP2;ratioP2
3343;SDS011;1685;53.104;8.228;2023-09-18T00:01:56;15.03;;;12.17;;
3343;SDS011;1685;53.104;8.228;2023-09-18T00:04:23;17.03;;;13.70;;
3343;SDS011;1685;53.104;8.228;2023-09-18T00:06:50;17.90;;;12.70;;
3343;SDS011;1685;53.104;8.228;2023-09-18T00:09:17;16.43;;;11.73;;
3343;SDS011;1685;53.104;8.228;2023-09-18T00:11:46;27.03;;;15.83;;
3343;SDS011;1685;53.104;8.228;2023-09-18T00:14:12;19.30;;;16.20;;
3343;SDS011;1685;53.104;8.228;2023-09-18T00:16:39;15.97;;;14.20;;
3343;SDS011;1685;53.104;8.228;2023-09-18T00:19:06;17.47;;;15.70;;
3343;SDS011;1685;53.104;8.228;2023-09-18T00:21:34;20.10;;;14.20;;
3343;SDS011;1685;53.104;8.228;2023-09-18T00:24:01;16.90;;;15.20;;
3343;SDS011;1685;53.104;8.228;2023-09-18T00:26:28;17.80;;;13.27;;
3343;SDS011;1685;53.104;8.228;2023-09-18T00:28:57;15.73;;;14.10;;
3343;SDS011;1685;53.104;8.228;2023-09-18T00:31:23;16.80;;;14.00;;
3343;SDS011;1685;53.104;8.228;2023-09-18T00:33:50;15.43;;;13.10;;
3343;SDS011;1685;53.104;8.228;2023-09-18T00:36:17;15.57;;;12.87;;
3343;SDS011;1685;53.104;8.228;2023-09-18T00:38:44;16.93;;;12.43;;
3343;SDS011;1685;53.104;8.228;2023-09-18T00:41:12;12.10;;;10.87;;
3343;SDS011;1685;53.104;8.228;2023-09-18T00:43:39;15.13;;;12.37;;
3343;SDS011;1685;53.104;8.228;2023-09-18T00:46:08;16.10;;;13.00;;
3343;SDS011;1685;53.104;8.228;2023-09-18T00:48:35;17.77;;;13.03;;
3343;SDS011;1685;53.104;8.228;2023-09-18T00:51:02;14.63;;;13.10;;
3343;SDS011;1685;53.104;8.228;2023-09-18T00:53:29;15.90;;;13.50;;
3343;SDS011;1685;53.104;8.228;2023-09-18T00:55:57;20.17;;;14.23;;
3343;SDS011;1685;53.104;8.228;2023-09-18T00:58:25;20.40;;;15.90;;
3343;SDS011;1685;53.104;8.228;2023-09-18T01:00:52;20.70;;;14.30;;
3343;SDS011;1685;53.104;8.228;2023-09-18T01:03:21;16.73;;;14.30;;
3343;SDS011;1685;53.104;8.228;2023-09-18T01:05:50;18.17;;;15.77;;
3343;SDS011;1685;53.104;8.228;2023-09-18T01:08:17;21.40;;;16.70;;
3343;SDS011;1685;53.104;8.228;2023-09-18T01:10:52;19.07;;;15.70;;
3343;SDS011;1685;53.104;8.228;2023-09-18T01:13:27;17.93;;;13.90;;
3343;SDS011;1685;53.104;8.228;2023-09-18T01:16:01;15.87;;;13.93;;
3343;SDS011;1685;53.104;8.228;2023-09-18T01:18:34;18.30;;;16.30;;
3343;SDS011;1685;53.104;8.228;2023-09-18T01:21:01;18.73;;;16.70;;
3343;SDS011;1685;53.104;8.228;2023-09-18T01:23:30;19.67;;;17.10;;
3343;SDS011;1685;53.104;8.228;2023-09-18T01:25:56;23.30;;;17.87;;
3343;SDS011;1685;53.104;8.228;2023-09-18T01:28:23;24.63;;;19.27;;
3343;SDS011;1685;53.104;8.228;2023-09-18T01:30:53;21.17;;;18.40;;
3343;SDS011;1685;53.104;8.228;2023-09-18T01:33:19;25.07;;;19.83;;
3343;SDS011;1685;53.104;8.228;2023-09-18T01:35:48;23.00;;;18.87;;
3343;SDS011;1685;53.104;8.228;2023-09-18T01:38:19;23.90;;;20.27;;
3343;SDS011;1685;53.104;8.228;2023-09-18T01:40:48;25.73;;;20.40;;
3343;SDS011;1685;53.104;8.228;2023-09-18T01:43:15;22.13;;;19.77;;
3343;SDS011;1685;53.104;8.228;2023-09-18T01:45:42;21.47;;;18.87;;
3343;SDS011;1685;53.104;8.228;2023-09-18T01:48:10;27.57;;;21.40;;
3343;SDS011;1685;53.104;8.228;2023-09-18T01:50:37;27.70;;;22.37;;
3343;SDS011;1685;53.104;8.228;2023-09-18T01:53:05;28.63;;;22.67;;
3343;SDS011;1685;53.104;8.228;2023-09-18T01:55:33;28.67;;;23.33;;
3343;SDS011;1685;53.104;8.228;2023-09-18T01:58:01;30.90;;;22.97;;
3343;SDS011;1685;53.104;8.228;2023-09-18T02:00:28;24.43;;;20.10;;
3343;SDS011;1685;53.104;8.228;2023-09-18T02:02:55;31.90;;;23.37;;
3343;SDS011;1685;53.104;8.228;2023-09-18T02:05:22;33.43;;;24.30;;
3343;SDS011;1685;53.104;8.228;2023-09-18T02:07:50;26.60;;;22.57;;
3343;SDS011;1685;53.104;8.228;2023-09-18T02:10:17;24.93;;;20.80;;
3343;SDS011;1685;53.104;8.228;2023-09-18T02:12:44;31.20;;;21.60;;
3343;SDS011;1685;53.104;8.228;2023-09-18T02:15:12;27.17;;;19.77;;
3343;SDS011;1685;53.104;8.228;2023-09-18T02:17:41;35.20;;;22.70;;
3343;SDS011;1685;53.104;8.228;2023-09-18T02:20:09;26.40;;;21.33;;
3343;SDS011;1685;53.104;8.228;2023-09-18T02:22:36;29.40;;;20.53;;
3343;SDS011;1685;53.104;8.228;2023-09-18T02:25:05;23.17;;;19.50;;
3343;SDS011;1685;53.104;8.228;2023-09-18T02:27:32;23.20;;;18.60;;
3343;SDS011;1685;53.104;8.228;2023-09-18T02:29:59;21.70;;;18.70;;
3343;SDS011;1685;53.104;8.228;2023-09-18T02:32:27;29.17;;;18.40;;
3343;SDS011;1685;53.104;8.228;2023-09-18T02:34:55;32.13;;;21.30;;
3343;SDS011;1685;53.104;8.228;2023-09-18T02:37:22;32.37;;;19.87;;
3343;SDS011;1685;53.104;8.228;2023-09-18T02:39:49;26.47;;;18.80;;
3343;SDS011;1685;53.104;8.228;2023-09-18T02:42:16;22.07;;;19.67;;
3343;SDS011;1685;53.104;8.228;2023-09-18T02:44:43;20.90;;;18.00;;
3343;SDS011;1685;53.104;8.228;2023-09-18T02:47:10;20.63;;;17.03;;
3343;SDS011;1685;53.104;8.228;2023-09-18T02:49:38;20.27;;;17.17;;
3343;SDS011;1685;53.104;8.228;2023-09-18T02:52:05;34.70;;;18.27;;
3343;SDS011;1685;53.104;8.228;2023-09-18T02:54:32;21.20;;;18.20;;
3343;SDS011;1685;53.104;8.228;2023-09-18T02:56:59;25.30;;;20.33;;
3343;SDS011;1685;53.104;8.228;2023-09-18T02:59:26;27.90;;;20.17;;
3343;SDS011;1685;53.104;8.228;2023-09-18T03:01:53;21.07;;;17.27;;
3343;SDS011;1685;53.104;8.228;2023-09-18T03:04:20;22.77;;;18.37;;
3343;SDS011;1685;53.104;8.228;2023-09-18T03:06:49;20.50;;;18.17;;
3343;SDS011;1685;53.104;8.228;2023-09-18T03:09:16;24.93;;;20.63;;
3343;SDS011;1685;53.104;8.228;2023-09-18T03:11:44;20.43;;;16.30;;
3343;SDS011;1685;53.104;8.228;2023-09-18T03:14:11;21.00;;;17.70;;
3343;SDS011;1685;53.104;8.228;2023-09-18T03:16:38;24.90;;;18.70;;
3343;SDS011;1685;53.104;8.228;2023-09-18T03:19:05;26.43;;;18.93;;
3343;SDS011;1685;53.104;8.228;2023-09-18T03:21:32;25.63;;;18.47;;
3343;SDS011;1685;53.104;8.228;2023-09-18T03:24:02;22.33;;;17.27;;
3343;SDS011;1685;53.104;8.228;2023-09-18T03:26:29;28.63;;;20.27;;
3343;SDS011;1685;53.104;8.228;2023-09-18T03:28:56;22.37;;;18.23;;
3343;SDS011;1685;53.104;8.228;2023-09-18T03:31:23;23.77;;;17.97;;
3343;SDS011;1685;53.104;8.228;2023-09-18T03:33:50;21.77;;;18.53;;
3343;SDS011;1685;53.104;8.228;2023-09-18T03:36:20;23.40;;;17.40;;
3343;SDS011;1685;53.104;8.228;2023-09-18T03:38:48;25.83;;;20.23;;
3343;SDS011;1685;53.104;8.228;2023-09-18T03:41:16;24.70;;;20.10;;
3343;SDS011;1685;53.104;8.228;2023-09-18T03:43:43;26.00;;;18.93;;
3343;SDS011;1685;53.104;8.228;2023-09-18T03:46:10;22.63;;;18.13;;
3343;SDS011;1685;53.104;8.228;2023-09-18T03:48:37;22.83;;;17.70;;
3343;SDS011;1685;53.104;8.228;2023-09-18T03:51:04;22.80;;;17.80;;
3343;SDS011;1685;53.104;8.228;2023-09-18T03:53:32;27.77;;;18.53;;
3343;SDS011;1685;53.104;8.228;2023-09-18T03:55:59;22.60;;;18.47;;
3343;SDS011;1685;53.104;8.228;2023-09-18T03:58:27;23.00;;;16.93;;
3343;SDS011;1685;53.104;8.228;2023-09-18T04:00:54;22.73;;;16.73;;
3343;SDS011;1685;53.104;8.228;2023-09-18T04:03:22;26.47;;;17.20;;
3343;SDS011;1685;53.104;8.228;2023-09-18T04:05:49;21.40;;;16.60;;
3343;SDS011;1685;53.104;8.228;2023-09-18T04:08:16;25.83;;;18.80;;
3343;SDS011;1685;53.104;8.228;2023-09-18T04:10:43;22.90;;;19.00;;
3343;SDS011;1685;53.104;8.228;2023-09-18T04:13:11;25.10;;;16.07;;
3343;SDS011;1685;53.104;8.228;2023-09-18T04:15:39;19.43;;;15.60;;
3343;SDS011;1685;53.104;8.228;2023-09-18T04:18:06;24.67;;;15.87;;
3343;SDS011;1685;53.104;8.228;2023-09-18T04:20:33;22.60;;;15.50;;
3343;SDS011;1685;53.104;8.228;2023-09-18T04:23:19;21.23;;;16.03;;
3343;SDS011;1685;53.104;8.228;2023-09-18T04:25:47;21.37;;;16.87;;
3343;SDS011;1685;53.104;8.228;2023-09-18T04:28:15;22.10;;;14.77;;
3343;SDS011;1685;53.104;8.228;2023-09-18T04:30:44;23.50;;;15.90;;
3343;SDS011;1685;53.104;8.228;2023-09-18T04:33:12;21.13;;;15.67;;
3343;SDS011;1685;53.104;8.228;2023-09-18T04:35:39;20.77;;;16.50;;
3343;SDS011;1685;53.104;8.228;2023-09-18T04:38:06;23.43;;;16.37;;
3343;SDS011;1685;53.104;8.228;2023-09-18T04:40:35;24.43;;;15.87;;
3343;SDS011;1685;53.104;8.228;2023-09-18T04:43:02;21.23;;;15.77;;
3343;SDS011;1685;53.104;8.228;2023-09-18T04:45:30;18.53;;;14.93;;
3343;SDS011;1685;53.104;8.228;2023-09-18T04:47:58;26.57;;;15.10;;
3343;SDS011;1685;53.104;8.228;2023-09-18T04:50:25;19.67;;;14.80;;
3343;SDS011;1685;53.104;8.228;2023-09-18T04:52:52;18.87;;;14.50;;
3343;SDS011;1685;53.104;8.228;2023-09-18T04:55:21;18.23;;;14.50;;
3343;SDS011;1685;53.104;8.228;2023-09-18T04:57:48;17.73;;;15.00;;
3343;SDS011;1685;53.104;8.228;2023-09-18T05:00:15;17.07;;;14.70;;
3343;SDS011;1685;53.104;8.228;2023-09-18T05:02:43;13.60;;;12.00;;
3343;SDS011;1685;53.104;8.228;2023-09-18T05:05:12;20.33;;;14.23;;
3343;SDS011;1685;53.104;8.228;2023-09-18T05:07:39;21.00;;;15.67;;
3343;SDS011;1685;53.104;8.228;2023-09-18T05:10:06;17.07;;;13.67;;
3343;SDS011;1685;53.104;8.228;2023-09-18T05:12:33;14.93;;;12.80;;
3343;SDS011;1685;53.104;8.228;2023-09-18T05:15:00;14.93;;;12.83;;
3343;SDS011;1685;53.104;8.228;2023-09-18T05:20:13;17.77;;;13.27;;
3343;SDS011;1685;53.104;8.228;2023-09-18T05:22:42;15.20;;;12.93;;
3343;SDS011;1685;53.104;8.228;2023-09-18T05:25:10;17.20;;;13.20;;
3343;SDS011;1685;53.104;8.228;2023-09-18T05:27:37;20.67;;;13.30;;
3343;SDS011;1685;53.104;8.228;2023-09-18T05:30:10;17.87;;;13.27;;
3343;SDS011;1685;53.104;8.228;2023-09-18T05:32:40;14.67;;;13.03;;
3343;SDS011;1685;53.104;8.228;2023-09-18T05:35:07;22.50;;;13.27;;
3343;SDS011;1685;53.104;8.228;2023-09-18T05:37:38;15.93;;;13.17;;
3343;SDS011;1685;53.104;8.228;2023-09-18T05:40:06;15.80;;;11.87;;
3343;SDS011;1685;53.104;8.228;2023-09-18T05:42:35;16.50;;;12.37;;
3343;SDS011;1685;53.104;8.228;2023-09-18T05:45:02;18.93;;;12.60;;
3343;SDS011;1685;53.104;8.228;2023-09-18T05:47:31;19.13;;;11.77;;
3343;SDS011;1685;53.104;8.228;2023-09-18T05:49:58;15.83;;;12.27;;
3343;SDS011;1685;53.104;8.228;2023-09-18T05:52:25;15.27;;;11.40;;
3343;SDS011;1685;53.104;8.228;2023-09-18T05:54:54;14.77;;;12.30;;
3343;SDS011;1685;53.104;8.228;2023-09-18T05:57:20;18.90;;;12.30;;
3343;SDS011;1685;53.104;8.228;2023-09-18T05:59:47;15.97;;;12.50;;
3343;SDS011;1685;53.104;8.228;2023-09-18T06:02:14;16.13;;;11.13;;
3343;SDS011;1685;53.104;8.228;2023-09-18T06:04:42;12.00;;;10.67;;
3343;SDS011;1685;53.104;8.228;2023-09-18T06:07:09;16.50;;;11.60;;
3343;SDS011;1685;53.104;8.228;2023-09-18T06:09:38;12.70;;;10.67;;
3343;SDS011;1685;53.104;8.228;2023-09-18T06:12:06;12.50;;;11.13;;
3343;SDS011;1685;53.104;8.228;2023-09-18T06:14:34;12.07;;;10.00;;
3343;SDS011;1685;53.104;8.228;2023-09-18T06:17:03;13.47;;;10.00;;
3343;SDS011;1685;53.104;8.228;2023-09-18T06:19:30;12.40;;;10.07;;
3343;SDS011;1685;53.104;8.228;2023-09-18T06:21:58;11.10;;;9.40;;
3343;SDS011;1685;53.104;8.228;2023-09-18T06:24:25;12.23;;;9.07;;
3343;SDS011;1685;53.104;8.228;2023-09-18T06:26:52;10.33;;;9.33;;
3343;SDS011;1685;53.104;8.228;2023-09-18T06:29:20;14.87;;;9.37;;
3343;SDS011;1685;53.104;8.228;2023-09-18T06:31:47;10.13;;;9.03;;
3343;SDS011;1685;53.104;8.228;2023-09-18T06:34:14;13.30;;;8.87;;
3343;SDS011;1685;53.104;8.228;2023-09-18T06:36:41;18.40;;;8.67;;
3343;SDS011;1685;53.104;8.228;2023-09-18T06:39:08;12.87;;;9.00;;
3343;SDS011;1685;53.104;8.228;2023-09-18T06:41:35;13.20;;;8.70;;
3343;SDS011;1685;53.104;8.228;2023-09-18T06:44:02;12.90;;;9.30;;
3343;SDS011;1685;53.104;8.228;2023-09-18T06:46:31;9.97;;;8.70;;
3343;SDS011;1685;53.104;8.228;2023-09-18T06:48:58;13.47;;;8.40;;
3343;SDS011;1685;53.104;8.228;2023-09-18T06:51:25;10.13;;;8.73;;
3343;SDS011;1685;53.104;8.228;2023-09-18T06:53:52;18.60;;;8.57;;
3343;SDS011;1685;53.104;8.228;2023-09-18T06:56:20;11.63;;;7.60;;
3343;SDS011;1685;53.104;8.228;2023-09-18T06:58:47;10.97;;;7.70;;
3343;SDS011;1685;53.104;8.228;2023-09-18T07:01:16;9.97;;;7.93;;
3343;SDS011;1685;53.104;8.228;2023-09-18T07:03:44;8.57;;;7.53;;
3343;SDS011;1685;53.104;8.228;2023-09-18T07:06:12;8.70;;;7.90;;
3343;SDS011;1685;53.104;8.228;2023-09-18T07:08:39;10.10;;;7.87;;
3343;SDS011;1685;53.104;8.228;2023-09-18T07:11:06;9.17;;;7.97;;
3343;SDS011;1685;53.104;8.228;2023-09-18T07:13:33;14.80;;;8.60;;
3343;SDS011;1685;53.104;8.228;2023-09-18T07:16:00;9.13;;;8.23;;
3343;SDS011;1685;53.104;8.228;2023-09-18T07:18:28;10.90;;;7.30;;
3343;SDS011;1685;53.104;8.228;2023-09-18T07:20:56;13.80;;;8.37;;
3343;SDS011;1685;53.104;8.228;2023-09-18T07:23:23;10.60;;;8.70;;
3343;SDS011;1685;53.104;8.228;2023-09-18T07:25:50;9.13;;;8.20;;
3343;SDS011;1685;53.104;8.228;2023-09-18T07:28:17;17.00;;;9.07;;
3343;SDS011;1685;53.104;8.228;2023-09-18T07:30:45;10.00;;;8.77;;
3343;SDS011;1685;53.104;8.228;2023-09-18T07:33:12;11.90;;;8.40;;
3343;SDS011;1685;53.104;8.228;2023-09-18T07:35:44;9.83;;;7.43;;
3343;SDS011;1685;53.104;8.228;2023-09-18T07:38:14;18.00;;;8.83;;
3343;SDS011;1685;53.104;8.228;2023-09-18T07:40:41;12.33;;;8.53;;
3343;SDS011;1685;53.104;8.228;2023-09-18T07:43:08;9.13;;;7.40;;
3343;SDS011;1685;53.104;8.228;2023-09-18T07:45:37;9.80;;;7.17;;
3343;SDS011;1685;53.104;8.228;2023-09-18T07:48:04;12.13;;;8.10;;
3343;SDS011;1685;53.104;8.228;2023-09-18T07:50:32;8.67;;;7.77;;
3343;SDS011;1685;53.104;8.228;2023-09-18T07:52:59;11.90;;;8.20;;
3343;SDS011;1685;53.104;8.228;2023-09-18T07:55:27;11.73;;;7.03;;
3343;SDS011;1685;53.104;8.228;2023-09-18T07:57:55;11.97;;;7.50;;
3343;SDS011;1685;53.104;8.228;2023-09-18T08:00:23;12.27;;;7.70;;
3343;SDS011;1685;53.104;8.228;2023-09-18T08:02:51;10.90;;;7.40;;
3343;SDS011;1685;53.104;8.228;2023-09-18T08:05:21;10.80;;;7.93;;
3343;SDS011;1685;53.104;8.228;2023-09-18T08:07:48;11.63;;;7.43;;
3343;SDS011;1685;53.104;8.228;2023-09-18T08:10:16;11.33;;;7.13;;
3343;SDS011;1685;53.104;8.228;2023-09-18T08:12:44;10.90;;;8.07;;
3343;SDS011;1685;53.104;8.228;2023-09-18T08:15:12;9.60;;;7.17;;
3343;SDS011;1685;53.104;8.228;2023-09-18T08:17:39;10.10;;;7.67;;
3343;SDS011;1685;53.104;8.228;2023-09-18T08:20:08;10.00;;;7.07;;
3343;SDS011;1685;53.104;8.228;2023-09-18T08:22:38;16.27;;;7.60;;
3343;SDS011;1685;53.104;8.228;2023-09-18T08:25:06;9.63;;;8.00;;
3343;SDS011;1685;53.104;8.228;2023-09-18T08:27:35;12.80;;;8.23;;
3343;SDS011;1685;53.104;8.228;2023-09-18T08:30:04;13.10;;;8.37;;
3343;SDS011;1685;53.104;8.228;2023-09-18T08:32:32;13.80;;;8.23;;
3343;SDS011;1685;53.104;8.228;2023-09-18T08:34:59;24.07;;;8.93;;
3343;SDS011;1685;53.104;8.228;2023-09-18T08:37:27;15.43;;;8.57;;
3343;SDS011;1685;53.104;8.228;2023-09-18T08:39:54;17.67;;;8.83;;
3343;SDS011;1685;53.104;8.228;2023-09-18T08:42:21;9.73;;;8.53;;
3343;SDS011;1685;53.104;8.228;2023-09-18T08:44:48;19.60;;;9.30;;
3343;SDS011;1685;53.104;8.228;2023-09-18T08:47:19;10.23;;;9.10;;
3343;SDS011;1685;53.104;8.228;2023-09-18T08:49:46;14.13;;;9.10;;
3343;SDS011;1685;53.104;8.228;2023-09-18T08:52:15;12.37;;;8.77;;
3343;SDS011;1685;53.104;8.228;2023-09-18T08:54:42;11.27;;;7.90;;
3343;SDS011;1685;53.104;8.228;2023-09-18T08:57:10;9.40;;;7.23;;
3343;SDS011;1685;53.104;8.228;2023-09-18T08:59:37;11.07;;;9.20;;
3343;SDS011;1685;53.104;8.228;2023-09-18T09:02:06;14.83;;;8.83;;
3343;SDS011;1685;53.104;8.228;2023-09-18T09:04:37;15.67;;;8.80;;
3343;SDS011;1685;53.104;8.228;2023-09-18T09:07:04;18.83;;;9.50;;
3343;SDS011;1685;53.104;8.228;2023-09-18T09:09:31;23.57;;;9.10;;
3343;SDS011;1685;53.104;8.228;2023-09-18T09:11:59;21.23;;;9.00;;
3343;SDS011;1685;53.104;8.228;2023-09-18T09:14:26;13.83;;;8.17;;
3343;SDS011;1685;53.104;8.228;2023-09-18T09:16:54;16.70;;;8.70;;
3343;SDS011;1685;53.104;8.228;2023-09-18T09:19:27;21.93;;;8.37;;
3343;SDS011;1685;53.104;8.228;2023-09-18T09:21:57;11.00;;;6.43;;
3343;SDS011;1685;53.104;8.228;2023-09-18T09:24:38;17.73;;;7.00;;
3343;SDS011;1685;53.104;8.228;2023-09-18T09:27:06;18.60;;;7.10;;
3343;SDS011;1685;53.104;8.228;2023-09-18T09:29:33;12.83;;;6.20;;
3343;SDS011;1685;53.104;8.228;2023-09-18T09:32:13;13.13;;;7.77;;
3343;SDS011;1685;53.104;8.228;2023-09-18T09:34:41;10.97;;;5.87;;
3343;SDS011;1685;53.104;8.228;2023-09-18T09:37:10;16.37;;;6.60;;
3343;SDS011;1685;53.104;8.228;2023-09-18T09:39:47;14.30;;;6.40;;
3343;SDS011;1685;53.104;8.228;2023-09-18T09:42:18;10.70;;;6.57;;
3343;SDS011;1685;53.104;8.228;2023-09-18T09:44:55;15.90;;;6.53;;
3343;SDS011;1685;53.104;8.228;2023-09-18T09:47:27;15.17;;;7.10;;
3343;SDS011;1685;53.104;8.228;2023-09-18T09:49:59;8.90;;;5.63;;
3343;SDS011;1685;53.104;8.228;2023-09-18T09:52:34;12.53;;;6.83;;
3343;SDS011;1685;53.104;8.228;2023-09-18T09:55:01;9.30;;;6.93;;
3343;SDS011;1685;53.104;8.228;2023-09-18T09:57:30;12.37;;;6.60;;
3343;SDS011;1685;53.104;8.228;2023-09-18T10:00:02;12.23;;;5.80;;
3343;SDS011;1685;53.104;8.228;2023-09-18T10:02:46;10.27;;;6.67;;
3343;SDS011;1685;53.104;8.228;2023-09-18T10:05:14;10.83;;;6.57;;
3343;SDS011;1685;53.104;8.228;2023-09-18T10:07:45;9.57;;;5.60;;
3343;SDS011;1685;53.104;8.228;2023-09-18T10:10:12;12.23;;;5.07;;
3343;SDS011;1685;53.104;8.228;2023-09-18T10:12:40;12.13;;;6.80;;
3343;SDS011;1685;53.104;8.228;2023-09-18T10:15:07;17.63;;;6.00;;
3343;SDS011;1685;53.104;8.228;2023-09-18T10:17:36;19.67;;;7.13;;
3343;SDS011;1685;53.104;8.228;2023-09-18T10:20:05;8.00;;;6.20;;
3343;SDS011;1685;53.104;8.228;2023-09-18T10:22:41;12.40;;;6.60;;
3343;SDS011;1685;53.104;8.228;2023-09-18T10:25:13;13.93;;;5.87;;
3343;SDS011;1685;53.104;8.228;2023-09-18T10:27:43;10.30;;;5.40;;
3343;SDS011;1685;53.104;8.228;2023-09-18T10:30:14;11.93;;;4.83;;
3343;SDS011;1685;53.104;8.228;2023-09-18T10:32:43;11.70;;;5.40;;
3343;SDS011;1685;53.104;8.228;2023-09-18T10:35:11;6.77;;;5.67;;
3343;SDS011;1685;53.104;8.228;2023-09-18T10:37:38;8.93;;;5.10;;
3343;SDS011;1685;53.104;8.228;2023-09-18T10:40:06;11.13;;;4.60;;
3343;SDS011;1685;53.104;8.228;2023-09-18T10:42:36;7.00;;;4.60;;
3343;SDS011;1685;53.104;8.228;2023-09-18T10:45:04;8.03;;;5.20;;
3343;SDS011;1685;53.104;8.228;2023-09-18T10:47:35;6.73;;;5.10;;
3343;SDS011;1685;53.104;8.228;2023-09-18T10:50:04;6.33;;;5.53;;
3343;SDS011;1685;53.104;8.228;2023-09-18T10:52:32;13.40;;;4.60;;
3343;SDS011;1685;53.104;8.228;2023-09-18T10:55:00;7.47;;;4.57;;
3343;SDS011;1685;53.104;8.228;2023-09-18T10:57:28;5.67;;;4.57;;
3343;SDS011;1685;53.104;8.228;2023-09-18T11:00:02;13.57;;;4.40;;
3343;SDS011;1685;53.104;8.228;2023-09-18T11:02:38;12.20;;;4.40;;
3343;SDS011;1685;53.104;8.228;2023-09-18T11:05:05;8.30;;;4.40;;
3343;SDS011;1685;53.104;8.228;2023-09-18T11:07:33;7.10;;;5.53;;
3343;SDS011;1685;53.104;8.228;2023-09-18T11:10:00;11.03;;;5.13;;
3343;SDS011;1685;53.104;8.228;2023-09-18T11:12:51;9.97;;;5.40;;
3343;SDS011;1685;53.104;8.228;2023-09-18T11:15:26;5.13;;;4.63;;
3343;SDS011;1685;53.104;8.228;2023-09-18T11:17:58;9.60;;;4.23;;
3343;SDS011;1685;53.104;8.228;2023-09-18T11:20:28;4.07;;;3.40;;
3343;SDS011;1685;53.104;8.228;2023-09-18T11:22:55;6.57;;;3.70;;
3343;SDS011;1685;53.104;8.228;2023-09-18T11:25:36;4.90;;;3.70;;
3343;SDS011;1685;53.104;8.228;2023-09-18T11:28:05;3.90;;;3.30;;
3343;SDS011;1685;53.104;8.228;2023-09-18T11:30:35;7.07;;;4.00;;
3343;SDS011;1685;53.104;8.228;2023-09-18T11:33:03;7.00;;;3.90;;
3343;SDS011;1685;53.104;8.228;2023-09-18T11:35:31;6.10;;;3.30;;
3343;SDS011;1685;53.104;8.228;2023-09-18T11:38:06;7.37;;;3.53;;
3343;SDS011;1685;53.104;8.228;2023-09-18T11:40:34;10.67;;;3.40;;
3343;SDS011;1685;53.104;8.228;2023-09-18T11:43:23;11.23;;;3.00;;
3343;SDS011;1685;53.104;8.228;2023-09-18T11:45:53;11.47;;;2.83;;
3343;SDS011;1685;53.104;8.228;2023-09-18T11:48:22;2.97;;;2.40;;
3343;SDS011;1685;53.104;8.228;2023-09-18T11:50:53;5.63;;;3.10;;
3343;SDS011;1685;53.104;8.228;2023-09-18T11:53:20;3.87;;;2.73;;
3343;SDS011;1685;53.104;8.228;2023-09-18T11:55:47;7.50;;;3.73;;
3343;SDS011;1685;53.104;8.228;2023-09-18T11:58:14;3.60;;;3.30;;
3343;SDS011;1685;53.104;8.228;2023-09-18T12:00:48;4.87;;;2.80;;
3343;SDS011;1685;53.104;8.228;2023-09-18T12:03:17;5.30;;;2.80;;
3343;SDS011;1685;53.104;8.228;2023-09-18T12:05:53;7.00;;;2.70;;
3343;SDS011;1685;53.104;8.228;2023-09-18T12:08:22;11.03;;;3.00;;
3343;SDS011;1685;53.104;8.228;2023-09-18T12:10:51;2.70;;;2.20;;
3343;SDS011;1685;53.104;8.228;2023-09-18T12:13:18;7.60;;;2.30;;
3343;SDS011;1685;53.104;8.228;2023-09-18T12:15:45;2.90;;;2.10;;
3343;SDS011;1685;53.104;8.228;2023-09-18T12:18:13;5.10;;;2.07;;
3343;SDS011;1685;53.104;8.228;2023-09-18T12:20:46;2.30;;;1.77;;
3343;SDS011;1685;53.104;8.228;2023-09-18T12:23:13;5.07;;;2.23;;
3343;SDS011;1685;53.104;8.228;2023-09-18T12:25:40;6.03;;;2.23;;
3343;SDS011;1685;53.104;8.228;2023-09-18T12:28:07;7.43;;;2.37;;
3343;SDS011;1685;53.104;8.228;2023-09-18T12:30:36;4.33;;;2.00;;
3343;SDS011;1685;53.104;8.228;2023-09-18T12:33:03;3.30;;;1.80;;
3343;SDS011;1685;53.104;8.228;2023-09-18T12:35:31;3.63;;;1.83;;
3343;SDS011;1685;53.104;8.228;2023-09-18T12:37:59;2.93;;;2.10;;
3343;SDS011;1685;53.104;8.228;2023-09-18T12:40:30;3.20;;;2.40;;
3343;SDS011;1685;53.104;8.228;2023-09-18T12:42:58;3.00;;;2.27;;
3343;SDS011;1685;53.104;8.228;2023-09-18T12:45:26;13.50;;;3.50;;
3343;SDS011;1685;53.104;8.228;2023-09-18T12:47:55;2.63;;;2.10;;
3343;SDS011;1685;53.104;8.228;2023-09-18T12:50:23;3.80;;;2.40;;
3343;SDS011;1685;53.104;8.228;2023-09-18T12:52:50;4.23;;;2.00;;
3343;SDS011;1685;53.104;8.228;2023-09-18T12:55:22;3.73;;;2.00;;
3343;SDS011;1685;53.104;8.228;2023-09-18T12:57:50;2.10;;;1.90;;
3343;SDS011;1685;53.104;8.228;2023-09-18T13:00:19;3.03;;;2.13;;
3343;SDS011;1685;53.104;8.228;2023-09-18T13:02:47;3.90;;;1.90;;
3343;SDS011;1685;53.104;8.228;2023-09-18T13:05:19;2.63;;;1.80;;
3343;SDS011;1685;53.104;8.228;2023-09-18T13:07:50;3.10;;;2.23;;
3343;SDS011;1685;53.104;8.228;2023-09-18T13:10:17;4.73;;;2.20;;
3343;SDS011;1685;53.104;8.228;2023-09-18T13:12:47;4.10;;;2.03;;
3343;SDS011;1685;53.104;8.228;2023-09-18T13:15:23;3.33;;;2.30;;
3343;SDS011;1685;53.104;8.228;2023-09-18T13:17:52;2.20;;;2.10;;
3343;SDS011;1685;53.104;8.228;2023-09-18T13:20:21;3.40;;;1.93;;
3343;SDS011;1685;53.104;8.228;2023-09-18T13:22:49;4.27;;;2.23;;
3343;SDS011;1685;53.104;8.228;2023-09-18T13:25:20;3.33;;;1.70;;
3343;SDS011;1685;53.104;8.228;2023-09-18T13:27:49;6.50;;;1.87;;
3343;SDS011;1685;53.104;8.228;2023-09-18T13:30:17;6.63;;;2.10;;
3343;SDS011;1685;53.104;8.228;2023-09-18T13:32:46;3.63;;;1.90;;
3343;SDS011;1685;53.104;8.228;2023-09-18T13:35:14;3.93;;;2.00;;
3343;SDS011;1685;53.104;8.228;2023-09-18T13:37:41;2.53;;;1.90;;
3343;SDS011;1685;53.104;8.228;2023-09-18T13:40:09;1.70;;;1.40;;
3343;SDS011;1685;53.104;8.228;2023-09-18T13:42:36;2.60;;;1.97;;
3343;SDS011;1685;53.104;8.228;2023-09-18T13:45:05;2.33;;;1.80;;
3343;SDS011;1685;53.104;8.228;2023-09-18T13:47:33;2.20;;;2.10;;
3343;SDS011;1685;53.104;8.228;2023-09-18T13:50:00;2.10;;;1.87;;
3343;SDS011;1685;53.104;8.228;2023-09-18T13:52:29;2.10;;;1.83;;
3343;SDS011;1685;53.104;8.228;2023-09-18T13:54:56;3.33;;;1.90;;
3343;SDS011;1685;53.104;8.228;2023-09-18T13:57:24;2.50;;;1.70;;
3343;SDS011;1685;53.104;8.228;2023-09-18T13:59:51;5.03;;;2.30;;
3343;SDS011;1685;53.104;8.228;2023-09-18T14:02:20;2.13;;;1.40;;
3343;SDS011;1685;53.104;8.228;2023-09-18T14:04:48;1.90;;;1.80;;
3343;SDS011;1685;53.104;8.228;2023-09-18T14:07:15;4.70;;;1.90;;
3343;SDS011;1685;53.104;8.228;2023-09-18T14:09:42;2.37;;;1.80;;
3343;SDS011;1685;53.104;8.228;2023-09-18T14:12:11;3.77;;;2.00;;
3343;SDS011;1685;53.104;8.228;2023-09-18T14:14:39;2.17;;;1.70;;
3343;SDS011;1685;53.104;8.228;2023-09-18T14:17:07;2.07;;;1.37;;
3343;SDS011;1685;53.104;8.228;2023-09-18T14:19:35;1.47;;;1.30;;
3343;SDS011;1685;53.104;8.228;2023-09-18T14:22:03;3.40;;;2.00;;
3343;SDS011;1685;53.104;8.228;2023-09-18T14:24:31;5.00;;;1.97;;
3343;SDS011;1685;53.104;8.228;2023-09-18T14:26:59;8.13;;;1.97;;
3343;SDS011;1685;53.104;8.228;2023-09-18T14:29:26;2.33;;;1.73;;
3343;SDS011;1685;53.104;8.228;2023-09-18T14:31:55;6.57;;;2.20;;
3343;SDS011;1685;53.104;8.228;2023-09-18T14:34:22;1.80;;;1.50;;
3343;SDS011;1685;53.104;8.228;2023-09-18T14:36:51;2.00;;;1.67;;
3343;SDS011;1685;53.104;8.228;2023-09-18T14:39:18;8.40;;;1.77;;
3343;SDS011;1685;53.104;8.228;2023-09-18T14:41:45;2.47;;;2.00;;
3343;SDS011;1685;53.104;8.228;2023-09-18T14:44:13;2.47;;;1.73;;
3343;SDS011;1685;53.104;8.228;2023-09-18T14:46:40;2.40;;;1.73;;
3343;SDS011;1685;53.104;8.228;2023-09-18T14:49:08;2.33;;;1.93;;
3343;SDS011;1685;53.104;8.228;2023-09-18T14:51:35;2.07;;;1.80;;
3343;SDS011;1685;53.104;8.228;2023-09-18T14:54:04;1.80;;;1.70;;
3343;SDS011;1685;53.104;8.228;2023-09-18T14:56:33;3.77;;;2.30;;
3343;SDS011;1685;53.104;8.228;2023-09-18T14:59:01;2.20;;;2.07;;
3343;SDS011;1685;53.104;8.228;2023-09-18T15:01:28;2.30;;;2.10;;
3343;SDS011;1685;53.104;8.228;2023-09-18T15:03:55;5.10;;;2.30;;
3343;SDS011;1685;53.104;8.228;2023-09-18T15:06:24;3.43;;;1.77;;
3343;SDS011;1685;53.104;8.228;2023-09-18T15:08:52;1.90;;;1.80;;
3343;SDS011;1685;53.104;8.228;2023-09-18T15:11:20;2.60;;;2.27;;